createdAt,value
2019-03-13T00:03:50.980Z,13.37
2019-03-13T00:06:35.731Z,14.77
2019-03-13T00:09:17.879Z,14.53
2019-03-13T00:12:00.009Z,14.00
2019-03-13T00:14:41.979Z,14.73
2019-03-13T00:17:23.723Z,15.00
2019-03-13T00:19:54.151Z,15.43
2019-03-13T00:25:45.034Z,15.60
2019-03-13T00:28:27.642Z,14.83
2019-03-13T00:31:09.907Z,14.73
2019-03-13T00:37:05.565Z,14.03
2019-03-13T00:39:48.039Z,14.00
2019-03-13T00:42:29.997Z,13.43
2019-03-13T00:48:51.447Z,13.60
2019-03-13T00:51:41.389Z,14.30
2019-03-13T00:54:23.299Z,13.67
2019-03-13T00:57:05.663Z,12.93
2019-03-13T00:59:48.242Z,13.47
2019-03-13T01:05:36.151Z,12.88
2019-03-13T01:08:37.706Z,12.53
2019-03-13T01:11:19.471Z,12.87
2019-03-13T01:14:02.183Z,12.47
2019-03-13T01:16:44.796Z,11.37
2019-03-13T01:19:26.834Z,11.87
2019-03-13T01:22:08.644Z,11.00
2019-03-13T01:24:53.039Z,11.37
2019-03-13T01:27:35.188Z,11.25
2019-03-13T01:30:17.151Z,12.23
2019-03-13T01:33:04.931Z,10.27
2019-03-13T01:38:50.479Z,9.70
2019-03-13T01:41:33.038Z,9.73
2019-03-13T01:44:14.999Z,10.50
2019-03-13T01:46:57.331Z,10.60
2019-03-13T01:49:39.890Z,10.07
2019-03-13T01:58:24.448Z,9.90
2019-03-13T02:01:07.031Z,9.80
2019-03-13T02:03:49.460Z,10.17
2019-03-13T02:06:31.215Z,9.07
2019-03-13T02:09:13.595Z,8.60
2019-03-13T02:14:39.594Z,8.53
2019-03-13T02:20:35.419Z,7.03
2019-03-13T02:26:47.254Z,7.07
2019-03-13T02:29:29.638Z,6.07
2019-03-13T02:32:11.960Z,5.37
2019-03-13T02:34:54.607Z,5.23
2019-03-13T02:37:36.535Z,4.70
2019-03-13T02:40:19.307Z,5.03
2019-03-13T02:43:01.132Z,5.07
2019-03-13T02:45:43.853Z,4.57
2019-03-13T02:48:26.164Z,5.67
2019-03-13T02:51:08.516Z,4.70
2019-03-13T02:53:50.235Z,4.43
2019-03-13T02:56:32.549Z,4.20
2019-03-13T02:59:14.762Z,4.50
2019-03-13T03:05:39.891Z,4.30
2019-03-13T03:08:22.503Z,4.67
2019-03-13T03:10:52.988Z,4.80
2019-03-13T03:13:42.550Z,4.77
2019-03-13T03:22:29.507Z,4.87
2019-03-13T03:25:12.024Z,5.53
2019-03-13T03:30:54.268Z,6.00
2019-03-13T03:33:36.983Z,6.30
2019-03-13T03:36:19.532Z,6.80
2019-03-13T03:39:01.732Z,6.33
2019-03-13T03:41:43.744Z,6.73
2019-03-13T03:44:25.629Z,6.67
2019-03-13T03:47:07.495Z,6.87
2019-03-13T03:49:49.916Z,6.07
2019-03-13T03:52:32.614Z,6.47
2019-03-13T03:55:14.514Z,6.40
2019-03-13T03:57:56.990Z,7.07
2019-03-13T04:03:22.516Z,6.80
2019-03-13T04:06:04.777Z,6.90
2019-03-13T04:08:47.077Z,7.37
2019-03-13T04:11:29.557Z,7.67
2019-03-13T04:14:11.639Z,7.40
2019-03-13T04:16:54.152Z,6.33
2019-03-13T04:19:36.663Z,6.70
2019-03-13T04:22:18.813Z,6.77
2019-03-13T04:25:01.345Z,6.40
2019-03-13T04:28:02.864Z,6.90
2019-03-13T04:30:44.871Z,5.60
2019-03-13T04:33:28.326Z,5.77
2019-03-13T04:35:59.027Z,5.70
2019-03-13T04:42:02.135Z,4.60
2019-03-13T04:44:44.379Z,5.17
2019-03-13T04:47:27.931Z,4.87
2019-03-13T04:50:13.463Z,4.83
2019-03-13T04:52:56.044Z,4.80
2019-03-13T04:55:37.836Z,4.07
2019-03-13T04:58:20.287Z,4.53
2019-03-13T05:01:02.690Z,4.40
2019-03-13T05:03:45.035Z,4.57
2019-03-13T05:06:26.855Z,3.80
2019-03-13T05:09:09.570Z,4.20
2019-03-13T05:12:11.135Z,4.70
2019-03-13T05:14:53.119Z,4.50
2019-03-13T05:17:35.208Z,4.33
2019-03-13T05:22:57.712Z,4.07
2019-03-13T05:25:39.847Z,4.57
2019-03-13T05:31:35.339Z,4.60
2019-03-13T05:34:17.699Z,4.67
2019-03-13T05:37:00.231Z,4.70
2019-03-13T05:39:41.913Z,4.30
2019-03-13T05:42:23.752Z,5.10
2019-03-13T05:44:54.131Z,4.43
2019-03-13T05:50:45.158Z,4.90
2019-03-13T05:53:26.931Z,4.37
2019-03-13T05:56:10.444Z,4.30
2019-03-13T05:58:52.219Z,4.37
2019-03-13T06:01:34.984Z,4.43
2019-03-13T06:07:56.753Z,4.23
2019-03-13T06:10:38.647Z,3.83
2019-03-13T06:13:20.691Z,4.17
2019-03-13T06:16:03.285Z,4.87
2019-03-13T06:18:45.755Z,4.23
2019-03-13T06:21:27.961Z,4.53
2019-03-13T06:24:10.439Z,3.70
2019-03-13T06:26:53.099Z,3.77
2019-03-13T06:29:34.887Z,3.70
2019-03-13T06:32:16.631Z,3.40
2019-03-13T06:34:59.015Z,3.63
2019-03-13T06:37:41.019Z,3.40
2019-03-13T06:40:23.579Z,3.70
2019-03-13T06:43:05.747Z,2.90
2019-03-13T06:45:48.096Z,3.07
2019-03-13T06:48:30.183Z,3.40
2019-03-13T06:51:12.258Z,2.80
2019-03-13T06:56:48.306Z,2.37
2019-03-13T06:59:56.840Z,2.50
2019-03-13T07:02:59.935Z,2.43
2019-03-13T07:08:55.239Z,3.23
2019-03-13T07:12:15.615Z,2.00
2019-03-13T07:15:09.913Z,1.80
2019-03-13T07:18:30.006Z,1.60
2019-03-13T07:24:56.647Z,1.67
2019-03-13T07:27:58.222Z,1.87
2019-03-13T07:31:23.969Z,1.53
2019-03-13T07:34:24.679Z,1.67
2019-03-13T07:37:26.967Z,1.40
2019-03-13T07:40:27.900Z,1.50
2019-03-13T07:55:16.342Z,1.63
2019-03-13T07:58:26.073Z,1.50
2019-03-13T08:01:34.571Z,1.60
2019-03-13T08:08:08.185Z,2.07
2019-03-13T08:11:11.319Z,1.70
2019-03-13T08:17:40.951Z,2.10
2019-03-13T08:21:08.791Z,1.87
2019-03-13T08:24:11.515Z,2.10
2019-03-13T08:27:15.502Z,2.27
2019-03-13T08:30:36.440Z,2.30
2019-03-13T08:33:40.675Z,2.30
2019-03-13T08:40:00.678Z,2.60
2019-03-13T08:45:46.563Z,2.33
2019-03-13T08:48:47.493Z,1.93
2019-03-13T08:51:48.644Z,3.03
2019-03-13T08:54:50.143Z,2.90
2019-03-13T08:57:33.627Z,2.83
2019-03-13T09:00:34.789Z,2.20
2019-03-13T09:06:42.099Z,2.77
2019-03-13T09:19:25.279Z,2.70
2019-03-13T09:22:40.231Z,2.30
2019-03-13T09:25:48.711Z,2.40
2019-03-13T09:28:57.511Z,2.43
2019-03-13T09:31:58.694Z,2.60
2019-03-13T09:34:57.060Z,2.30
2019-03-13T09:38:11.614Z,2.10
2019-03-13T09:41:32.535Z,3.07
2019-03-13T09:44:33.544Z,2.03
2019-03-13T09:47:21.823Z,2.67
2019-03-13T09:50:42.090Z,2.70
2019-03-13T09:54:02.185Z,2.60
2019-03-13T09:57:22.856Z,2.20
2019-03-13T10:00:05.099Z,2.47
2019-03-13T10:06:15.324Z,2.80
2019-03-13T10:12:05.328Z,2.93
2019-03-13T10:15:13.811Z,2.40
2019-03-13T10:18:22.312Z,3.37
2019-03-13T10:21:12.071Z,2.40
2019-03-13T10:24:36.032Z,3.00
2019-03-13T10:27:31.695Z,2.67
2019-03-13T10:37:02.171Z,2.63
2019-03-13T10:43:15.115Z,2.23
2019-03-13T10:46:15.901Z,2.13
2019-03-13T10:49:17.187Z,2.43
2019-03-13T10:52:22.909Z,2.60
2019-03-13T10:58:48.395Z,2.50
2019-03-13T11:04:47.613Z,3.63
2019-03-13T11:11:07.395Z,2.73
2019-03-13T11:14:15.388Z,2.63
2019-03-13T11:17:14.767Z,2.20
2019-03-13T11:23:51.702Z,2.53
2019-03-13T11:29:47.271Z,2.60
2019-03-13T11:32:49.914Z,2.80
2019-03-13T11:35:54.129Z,2.90
2019-03-13T11:39:14.815Z,2.80
2019-03-13T11:45:26.651Z,2.40
2019-03-13T11:54:43.935Z,2.50
2019-03-13T11:57:44.909Z,2.20
2019-03-13T12:06:16.080Z,2.70
2019-03-13T12:09:17.196Z,2.90
2019-03-13T12:15:43.703Z,3.20
2019-03-13T12:25:31.871Z,3.70
2019-03-13T12:28:35.719Z,4.33
2019-03-13T12:31:43.513Z,4.20
2019-03-13T12:34:44.794Z,4.73
2019-03-13T12:37:45.873Z,5.50
2019-03-13T12:40:47.027Z,4.67
2019-03-13T12:43:51.190Z,5.03
2019-03-13T12:46:51.037Z,5.53
2019-03-13T12:53:25.108Z,5.47
2019-03-13T12:59:59.715Z,4.87
2019-03-13T13:06:11.788Z,5.53
2019-03-13T13:09:12.684Z,5.30
2019-03-13T13:12:17.471Z,6.03
2019-03-13T13:15:18.488Z,5.63
2019-03-13T13:18:19.840Z,5.90
2019-03-13T13:21:01.998Z,5.93
2019-03-13T13:23:44.055Z,5.77
2019-03-13T13:26:26.199Z,5.97
2019-03-13T13:29:07.991Z,6.90
2019-03-13T13:31:50.187Z,6.10
2019-03-13T13:34:32.451Z,5.90
2019-03-13T13:37:14.787Z,6.33
2019-03-13T13:39:56.705Z,5.40
2019-03-13T13:42:38.839Z,6.03
2019-03-13T13:45:20.603Z,6.70
2019-03-13T13:48:03.008Z,6.37
2019-03-13T13:50:45.695Z,5.93
2019-03-13T13:53:27.587Z,5.70
2019-03-13T13:56:09.483Z,5.93
2019-03-13T13:58:51.957Z,7.07
2019-03-13T14:01:34.531Z,5.97
2019-03-13T14:07:55.879Z,6.33
2019-03-13T14:10:37.950Z,6.47
2019-03-13T14:13:20.423Z,7.90
2019-03-13T14:16:02.479Z,6.87
2019-03-13T14:18:45.370Z,7.07
2019-03-13T14:21:27.467Z,6.97
2019-03-13T14:24:09.683Z,6.80
2019-03-13T14:26:51.960Z,7.40
2019-03-13T14:29:33.959Z,7.37
2019-03-13T14:32:16.331Z,7.33
2019-03-13T14:34:58.735Z,7.77
2019-03-13T14:37:29.178Z,6.97
2019-03-13T14:43:20.540Z,7.10
2019-03-13T14:46:11.850Z,5.37
2019-03-13T14:52:02.751Z,6.33
2019-03-13T14:54:44.784Z,6.37
2019-03-13T14:57:26.847Z,5.70
2019-03-13T15:00:08.651Z,5.20
2019-03-13T15:02:51.468Z,5.47
2019-03-13T15:05:33.891Z,5.00
2019-03-13T15:08:16.317Z,5.53
2019-03-13T15:10:58.724Z,4.87
2019-03-13T15:13:41.195Z,4.70
2019-03-13T15:16:23.280Z,5.93
2019-03-13T15:19:05.903Z,5.13
2019-03-13T15:21:48.419Z,4.80
2019-03-13T15:24:31.045Z,4.63
2019-03-13T15:27:13.710Z,5.20
2019-03-13T15:29:56.288Z,5.27
2019-03-13T15:32:38.609Z,5.50
2019-03-13T15:35:20.619Z,5.90
2019-03-13T15:38:02.592Z,4.97
2019-03-13T15:40:45.172Z,5.67
2019-03-13T15:43:27.043Z,5.37
2019-03-13T15:45:57.517Z,5.43
2019-03-13T15:58:09.331Z,5.23
2019-03-13T16:00:59.183Z,5.67
2019-03-13T16:10:03.529Z,6.70
2019-03-13T16:13:06.235Z,6.40
2019-03-13T16:15:52.089Z,5.60
2019-03-13T16:18:34.689Z,6.43
2019-03-13T16:21:17.019Z,6.60
2019-03-13T16:23:59.815Z,6.00
2019-03-13T16:26:41.835Z,6.63
2019-03-13T16:29:24.150Z,6.60
2019-03-13T16:32:07.031Z,5.27
2019-03-13T16:34:49.397Z,6.33
2019-03-13T16:37:31.314Z,6.43
2019-03-13T16:42:57.299Z,6.40
2019-03-13T16:45:39.019Z,6.73
2019-03-13T16:48:21.711Z,6.47
2019-03-13T16:51:04.402Z,6.30
2019-03-13T16:53:46.227Z,6.60
2019-03-13T16:56:28.699Z,6.47
2019-03-13T16:59:10.491Z,5.90
2019-03-13T17:01:52.571Z,6.70
2019-03-13T17:04:34.667Z,5.97
2019-03-13T17:07:16.904Z,6.43
2019-03-13T17:09:59.420Z,6.93
2019-03-13T17:12:41.847Z,5.90
2019-03-13T17:15:24.478Z,6.43
2019-03-13T17:18:06.560Z,7.03
2019-03-13T17:20:49.091Z,6.83
2019-03-13T17:23:31.795Z,7.43
2019-03-13T17:26:13.591Z,7.13
2019-03-13T17:28:55.931Z,6.03
2019-03-13T17:31:38.703Z,6.30
2019-03-13T17:34:20.747Z,5.60
2019-03-13T17:37:03.304Z,6.60
2019-03-13T17:42:30.723Z,6.50
2019-03-13T17:45:13.440Z,7.10
2019-03-13T17:47:56.012Z,5.57
2019-03-13T17:50:38.606Z,5.93
2019-03-13T17:53:21.019Z,5.63
2019-03-13T17:56:03.626Z,4.93
2019-03-13T17:58:46.060Z,4.40
2019-03-13T18:01:30.014Z,4.53
2019-03-13T18:04:12.411Z,4.23
2019-03-13T18:06:55.175Z,3.63
2019-03-13T18:09:36.955Z,3.17
2019-03-13T18:12:27.720Z,2.60
2019-03-13T18:15:10.209Z,2.80
2019-03-13T18:17:52.831Z,3.10
2019-03-13T18:20:34.621Z,3.03
2019-03-13T18:23:16.908Z,2.83
2019-03-13T18:25:59.580Z,3.30
2019-03-13T18:28:42.112Z,2.40
2019-03-13T18:31:24.723Z,2.30
2019-03-13T18:34:07.272Z,2.67
2019-03-13T18:36:49.459Z,2.60
2019-03-13T18:39:32.119Z,2.23
2019-03-13T18:42:14.087Z,2.40
2019-03-13T18:44:55.942Z,2.20
2019-03-13T18:47:37.779Z,2.33
2019-03-13T18:50:19.965Z,2.23
2019-03-13T18:53:02.455Z,2.50
2019-03-13T18:55:44.263Z,2.70
2019-03-13T18:58:26.433Z,2.33
2019-03-13T19:00:58.274Z,2.93
2019-03-13T19:03:47.966Z,2.80
2019-03-13T19:06:55.285Z,3.10
2019-03-13T19:09:38.309Z,2.93
2019-03-13T19:12:11.773Z,3.60
2019-03-13T19:15:00.049Z,3.57
2019-03-13T19:18:02.292Z,3.13
2019-03-13T19:20:44.525Z,3.90
2019-03-13T19:23:26.271Z,3.13
2019-03-13T19:25:56.704Z,4.00
2019-03-13T19:31:40.779Z,3.63
2019-03-13T19:34:22.706Z,3.87
2019-03-13T19:37:04.611Z,4.57
2019-03-13T19:39:46.430Z,3.97
2019-03-13T19:42:36.984Z,3.87
2019-03-13T19:46:11.116Z,3.73
2019-03-13T19:48:53.757Z,4.43
2019-03-13T19:51:35.923Z,5.13
2019-03-13T19:54:18.122Z,4.90
2019-03-13T19:57:00.535Z,4.87
2019-03-13T19:59:42.771Z,5.00
2019-03-13T20:02:25.760Z,5.17
2019-03-13T20:05:08.033Z,5.23
2019-03-13T20:07:50.408Z,5.60
2019-03-13T20:10:32.374Z,5.93
2019-03-13T20:13:14.929Z,6.10
2019-03-13T20:15:56.854Z,6.20
2019-03-13T20:18:39.480Z,7.33
2019-03-13T20:21:21.448Z,7.50
2019-03-13T20:24:04.120Z,7.20
2019-03-13T20:26:46.531Z,7.27
2019-03-13T20:29:29.195Z,7.47
2019-03-13T20:31:59.613Z,7.60
2019-03-13T20:40:44.804Z,8.17
2019-03-13T20:43:27.079Z,7.40
2019-03-13T20:46:09.383Z,7.23
2019-03-13T20:48:51.759Z,7.07
2019-03-13T20:51:34.007Z,7.20
2019-03-13T20:54:04.490Z,7.12
2019-03-13T21:03:14.247Z,7.00
2019-03-13T21:06:34.235Z,6.70
2019-03-13T21:09:16.683Z,6.17
2019-03-13T21:11:58.887Z,7.00
2019-03-13T21:14:40.659Z,7.37
2019-03-13T21:17:22.879Z,7.27
2019-03-13T21:20:04.751Z,6.03
2019-03-13T21:22:47.091Z,6.17
2019-03-13T21:25:28.825Z,6.23
2019-03-13T21:28:10.639Z,7.30
2019-03-13T21:30:53.045Z,6.87
2019-03-13T21:33:34.821Z,7.17
2019-03-13T21:36:16.948Z,7.10
2019-03-13T21:38:59.167Z,6.87
2019-03-13T21:41:41.083Z,6.67
2019-03-13T21:44:11.523Z,6.70
2019-03-13T21:50:02.565Z,7.17
2019-03-13T21:52:44.277Z,7.13
2019-03-13T21:55:27.486Z,8.27
2019-03-13T21:58:10.078Z,7.57
2019-03-13T22:00:52.211Z,7.27
2019-03-13T22:03:34.437Z,6.80
2019-03-13T22:06:28.127Z,6.57
2019-03-13T22:09:07.815Z,6.47
2019-03-13T22:11:58.945Z,6.23
2019-03-13T22:14:41.475Z,6.90
2019-03-13T22:17:23.447Z,6.60
2019-03-13T22:20:05.615Z,7.00
2019-03-13T22:22:48.069Z,6.77
2019-03-13T22:25:30.027Z,6.77
2019-03-13T22:28:00.506Z,7.10
2019-03-13T22:30:49.931Z,6.53
2019-03-13T22:33:51.239Z,6.73
2019-03-13T22:36:33.935Z,6.67
2019-03-13T22:39:16.299Z,6.60
2019-03-13T22:41:58.455Z,7.17
2019-03-13T22:47:51.198Z,6.93
2019-03-13T22:50:33.671Z,7.10
2019-03-13T22:53:16.171Z,6.90
2019-03-13T22:55:57.951Z,6.80
2019-03-13T22:58:40.513Z,7.17
2019-03-13T23:01:22.267Z,6.17
2019-03-13T23:04:14.084Z,6.10
2019-03-13T23:06:56.559Z,6.40
2019-03-13T23:09:38.639Z,6.83
2019-03-13T23:12:24.202Z,6.67
2019-03-13T23:15:06.786Z,7.77
2019-03-13T23:17:48.791Z,7.43
2019-03-13T23:20:30.592Z,6.70
2019-03-13T23:23:12.664Z,7.20
2019-03-13T23:28:37.723Z,7.70
2019-03-13T23:31:19.809Z,6.50
2019-03-13T23:37:03.046Z,6.30
2019-03-13T23:39:52.531Z,6.17
2019-03-13T23:45:56.504Z,4.27
2019-03-13T23:48:38.326Z,4.10
2019-03-13T23:51:20.624Z,3.67
2019-03-13T23:54:03.160Z,3.50
2019-03-13T23:56:45.860Z,3.60
2019-03-13T23:59:27.608Z,4.03
